WetterOnline ( https://www.wetteronline.de )

Wetter aktuell Bad Liebenwerda

Aktuelles Wetter: Kirchhain (100m)

6-stündlich | Neueste Meldungen
Ortszeit Temperatur Wetter
Fr, 25.09. 14:00 15.7° C bewölkt
Fr, 25.09. 8:00 13.2° C leichter Regen
Fr, 25.09. 2:00 11.9° C bedeckt
Do, 24.09. 20:00 17.9° C wolkig
Do, 24.09. 14:00 22.4° C wolkig
Do, 24.09. 8:00 13.9° C wolkig
Do, 24.09. 2:00 15.9° C leicht bewölkt
Mi, 23.09. 20:00 19.2° C bedeckt
Ortszeit Temperatur Wetter
Fr, 25.09. 17:30 15.0° C bedeckt
Fr, 25.09. 17:20 15.0° C bedeckt
Fr, 25.09. 17:10 15.0° C bedeckt
Fr, 25.09. 17:00 15.0° C bedeckt
Fr, 25.09. 16:50 15.0° C bedeckt
Fr, 25.09. 16:40 15.1° C bewölkt
Fr, 25.09. 16:30 15.1° C wolkig
Fr, 25.09. 16:00 14.7° C wolkig
Fr, 25.09. 15:30 14.2° C bewölkt
Fr, 25.09. 15:00 13.9° C bedeckt
Fr, 25.09. 14:30 13.8° C bewölkt
Ortszeit Relative Feuchte Sichtweite
Fr, 25.09. 14:00 84% 35 km
Fr, 25.09. 8:00 97% 7 km
Fr, 25.09. 2:00 89% 55 km
Do, 24.09. 20:00 53% 40 km
Do, 24.09. 14:00 52% 50 km
Do, 24.09. 8:00 84% 40 km
Do, 24.09. 2:00 82% 30 km
Mi, 23.09. 20:00 76% 45 km
Ortszeit Relative Feuchte Sichtweite
Fr, 25.09. 17:30 71% >70 km
Fr, 25.09. 17:20 71% -
Fr, 25.09. 17:10 69% -
Fr, 25.09. 17:00 66% >70 km
Fr, 25.09. 16:50 66% -
Fr, 25.09. 16:40 67% -
Fr, 25.09. 16:30 72% >70 km
Fr, 25.09. 16:00 72% >70 km
Fr, 25.09. 15:30 72% >70 km
Fr, 25.09. 15:00 78% >70 km
Fr, 25.09. 14:30 81% >70 km
Ortszeit Niederschlagsmenge Niederschlagsart
Fr, 25.09. 14:00 2 l/m2 in 6 Std. Regen
Fr, 25.09. 8:00 4 l/m2 in 12 Std. Regen
Fr, 25.09. 2:00 0.0 l/m2 in 6 Std. -
Do, 24.09. 20:00 0.0 l/m2 in 12 Std. -
Do, 24.09. 14:00 0.0 l/m2 in 6 Std. -
Do, 24.09. 8:00 0.0 l/m2 in 12 Std. -
Do, 24.09. 2:00 0.0 l/m2 in 6 Std. -
Mi, 23.09. 20:00 0.1 l/m2 in 12 Std. Regen
Ortszeit Niederschlagsmenge Niederschlagsart
Fr, 25.09. 17:30 0.0 l/m2 in 1 Std. -
Fr, 25.09. 17:20 keine Meldung -
Fr, 25.09. 17:10 keine Meldung -
Fr, 25.09. 17:00 0.0 l/m2 in 1 Std. Regen
Fr, 25.09. 16:50 keine Meldung -
Fr, 25.09. 16:40 keine Meldung -
Fr, 25.09. 16:30 0.0 l/m2 in 1 Std. -
Fr, 25.09. 16:00 0.0 l/m2 in 1 Std. -
Fr, 25.09. 15:30 0.0 l/m2 in 1 Std. -
Fr, 25.09. 15:00 0.1 l/m2 in 1 Std. Regen
Fr, 25.09. 14:30 0.1 l/m2 in 1 Std. Schneeregen
Ortszeit Stärke Spitze Richtung
km/h Bft. km/h Grad Sektor
Fr, 25.09. 14:00 11 2 22 240° SW
Fr, 25.09. 8:00 7 2 25 250° W
Fr, 25.09. 2:00 0 0 14 - -
Do, 24.09. 20:00 9 2 30 200° S
Do, 24.09. 14:00 15 3 41 260° W
Do, 24.09. 8:00 9 2 17 170° S
Do, 24.09. 2:00 11 2 18 200° S
Mi, 23.09. 20:00 7 2 33 160° S
Ortszeit Stärke Spitze Richtung
km/h Bft. km/h Grad Sektor
Fr, 25.09. 17:30 9 2 20 260° W
Fr, 25.09. 17:20 9 2 - 260° W
Fr, 25.09. 17:10 14 3 - 270° W
Fr, 25.09. 17:00 17 3 24 280° W
Fr, 25.09. 16:50 17 3 - 280° W
Fr, 25.09. 16:40 17 3 - 280° W
Fr, 25.09. 16:30 13 3 20 290° W
Fr, 25.09. 16:00 14 3 32 290° W
Fr, 25.09. 15:30 14 3 32 290° W
Fr, 25.09. 15:00 17 3 43 290° W
Fr, 25.09. 14:30 24 4 43 280° W
Ortszeit Untergrenze Bedeckung Gattung
total tief tief mittel hoch
Fr, 25.09. 14:00 420 m 7/8 7/8 - - -
Fr, 25.09. 8:00 60 m 8/8 8/8 - - -
Fr, 25.09. 2:00 2400 m 8/8 8/8 - - -
Do, 24.09. 20:00 3300 m 8/8 2/8 - - -
Do, 24.09. 14:00 1500 m 8/8 2/8 - - -
Do, 24.09. 8:00 7500 m 8/8 0/8 - - -
Do, 24.09. 2:00 10500 m 5/8 0/8 - - -
Mi, 23.09. 20:00 3300 m 8/8 8/8 - - -
Ortszeit Bedeckungsgrad in Achtel und Wolkenuntergrenze
Fr, 25.09. 17:30 1(870m) 3(1290m) 8(2700m)
Fr, 25.09. 17:20 1(870m) 3(1290m) 8(2700m)
Fr, 25.09. 17:10 2(960m) 3(1260m) 8(2700m)
Fr, 25.09. 17:00 2(840m) 8(2400m) 8(3000m)
Fr, 25.09. 16:50 2(840m) 8(2400m) 8(3000m)
Fr, 25.09. 16:40 3(840m) 7(1020m) 8(3000m)
Fr, 25.09. 16:30 3(960m) 7(3300m) 8(5400m)
Fr, 25.09. 16:00 2(1200m) 8(4800m) 8(5400m)
Fr, 25.09. 15:30 6(1080m) 8(4200m) 8(5400m)
Fr, 25.09. 15:00 7(870m) 8(1500m) 8(4200m)
Fr, 25.09. 14:30 1(480m) 7(1140m) 7(1500m)
Ortszeit Luftdruck NN (hPa) Tendenz (hPa in 3 Std.)
Fr, 25.09. 14:00 997 - 0,2
Fr, 25.09. 8:00 998 - 1,3
Fr, 25.09. 2:00 1001 - 2,8
Do, 24.09. 20:00 1005 - 0,3
Do, 24.09. 14:00 1005 + 0,5
Do, 24.09. 8:00 1004 - 0,2
Do, 24.09. 2:00 1005 - 0,1
Mi, 23.09. 20:00 1005 0,0
Ortszeit Luftdruck NN (hPa) Tendenz (hPa in 3 Std.)
Fr, 25.09. 17:30 998 + 0,3
Fr, 25.09. 17:20 998 keine Meldung
Fr, 25.09. 17:10 998 keine Meldung
Fr, 25.09. 17:00 998 + 0,6
Fr, 25.09. 16:50 998 keine Meldung
Fr, 25.09. 16:40 998 keine Meldung
Fr, 25.09. 16:30 998 + 0,7
Fr, 25.09. 16:00 997 + 0,2
Fr, 25.09. 15:30 998 + 0,3
Fr, 25.09. 15:00 997 + 0,2
Fr, 25.09. 14:30 997 0,0
Ortszeit Schneehöhe (cm)
Fr, 25.09. 14:00 -
Fr, 25.09. 8:00 -
Fr, 25.09. 2:00 -
Do, 24.09. 20:00 -
Do, 24.09. 14:00 -
Do, 24.09. 8:00 -
Do, 24.09. 2:00 -
Mi, 23.09. 20:00 -
Ortszeit Schneehöhe (cm)
Fr, 25.09. 17:30 -
Fr, 25.09. 17:20 -
Fr, 25.09. 17:10 -
Fr, 25.09. 17:00 -
Fr, 25.09. 16:50 -
Fr, 25.09. 16:40 -
Fr, 25.09. 16:30 -
Fr, 25.09. 16:00 -
Fr, 25.09. 15:30 -
Fr, 25.09. 15:00 -
Fr, 25.09. 14:30 -
Link zu dieser Seite / Seite empfehlen

Das Wetter in ...